createdAt,value
2022-08-18T00:01:19.548Z,10.53
2022-08-18T00:03:56.401Z,10.83
2022-08-18T00:06:29.318Z,10.57
2022-08-18T00:09:01.294Z,10.00
2022-08-18T00:11:41.082Z,9.87
2022-08-18T00:14:21.390Z,9.43
2022-08-18T00:16:52.581Z,9.23
2022-08-18T00:19:21.843Z,9.37
2022-08-18T00:22:08.762Z,9.47
2022-08-18T00:24:47.736Z,9.00
2022-08-18T00:27:23.216Z,9.40
2022-08-18T00:29:52.800Z,8.53
2022-08-18T00:32:26.185Z,9.03
2022-08-18T00:34:53.938Z,8.63
2022-08-18T00:37:23.241Z,8.40
2022-08-18T00:39:54.372Z,8.17
2022-08-18T00:42:29.122Z,8.23
2022-08-18T00:45:01.367Z,8.27
2022-08-18T00:47:36.362Z,7.73
2022-08-18T00:50:17.069Z,7.37
2022-08-18T00:52:50.170Z,7.63
2022-08-18T00:55:18.438Z,7.27
2022-08-18T00:57:51.354Z,8.07
2022-08-18T01:00:19.437Z,7.80
2022-08-18T01:02:52.434Z,8.53
2022-08-18T01:05:30.736Z,8.03
2022-08-18T01:07:58.697Z,7.43
2022-08-18T01:10:26.431Z,7.47
2022-08-18T01:12:56.356Z,7.10
2022-08-18T01:15:28.777Z,7.43
2022-08-18T01:18:22.446Z,7.30
2022-08-18T01:21:27.838Z,7.70
2022-08-18T01:23:56.000Z,7.47
2022-08-18T01:26:26.325Z,7.33
2022-08-18T01:28:54.107Z,7.63
2022-08-18T01:31:53.297Z,7.10
2022-08-18T01:34:24.686Z,7.57
2022-08-18T01:36:54.990Z,7.13
2022-08-18T01:41:11.177Z,7.80
2022-08-18T01:42:15.017Z,7.17
2022-08-18T01:44:42.072Z,7.77
2022-08-18T01:47:11.857Z,7.53
2022-08-18T01:49:44.565Z,7.57
2022-08-18T01:52:18.099Z,7.43
2022-08-18T01:54:45.383Z,7.87
2022-08-18T01:57:13.606Z,7.97
2022-08-18T01:59:42.062Z,8.40
2022-08-18T02:02:12.355Z,8.47
2022-08-18T02:04:45.929Z,8.20
2022-08-18T02:07:14.957Z,7.67
2022-08-18T02:09:52.461Z,8.10
2022-08-18T02:12:20.795Z,8.33
2022-08-18T02:14:50.228Z,6.93
2022-08-18T02:17:18.680Z,7.70
2022-08-18T02:19:49.190Z,7.93
2022-08-18T02:22:19.291Z,7.60
2022-08-18T02:24:53.296Z,7.50
2022-08-18T02:27:20.394Z,7.70
2022-08-18T02:29:50.784Z,7.97
2022-08-18T02:35:11.739Z,6.97
2022-08-18T02:37:44.529Z,7.47
2022-08-18T02:40:14.731Z,7.70
2022-08-18T02:42:47.088Z,7.90
2022-08-18T02:45:18.528Z,7.50
2022-08-18T02:47:45.842Z,7.00
2022-08-18T02:50:14.151Z,7.17
2022-08-18T02:52:41.360Z,7.90
2022-08-18T02:55:09.173Z,6.63
2022-08-18T02:57:36.609Z,7.30
2022-08-18T03:00:05.108Z,7.23
2022-08-18T03:02:39.569Z,6.70
2022-08-18T03:05:07.476Z,6.73
2022-08-18T03:07:41.398Z,6.50
2022-08-18T03:10:31.925Z,6.90
2022-08-18T03:12:59.289Z,6.50
2022-08-18T03:15:29.428Z,7.03
2022-08-18T03:17:56.329Z,6.50
2022-08-18T03:20:31.100Z,6.90
2022-08-18T03:22:58.727Z,6.60
2022-08-18T03:25:25.479Z,6.83
2022-08-18T03:27:52.391Z,6.90
2022-08-18T03:30:19.552Z,6.43
2022-08-18T03:32:47.343Z,6.63
2022-08-18T03:35:14.668Z,6.73
2022-08-18T03:37:41.526Z,6.57
2022-08-18T03:40:09.712Z,6.93
2022-08-18T03:42:41.557Z,7.43
2022-08-18T03:45:17.275Z,7.53
2022-08-18T03:47:45.993Z,7.13
2022-08-18T03:50:14.041Z,7.50
2022-08-18T03:52:43.025Z,6.83
2022-08-18T03:55:10.449Z,7.93
2022-08-18T03:57:39.073Z,8.57
2022-08-18T04:00:10.353Z,7.30
2022-08-18T04:02:38.323Z,7.43
2022-08-18T04:05:06.604Z,7.00
2022-08-18T04:07:36.723Z,6.90
2022-08-18T04:10:04.995Z,7.27
2022-08-18T04:12:33.000Z,7.57
2022-08-18T04:14:59.868Z,7.07
2022-08-18T04:17:26.697Z,6.50
2022-08-18T04:19:55.639Z,7.20
2022-08-18T04:22:25.228Z,7.10
2022-08-18T04:24:55.958Z,7.23
2022-08-18T04:27:25.234Z,7.03
2022-08-18T04:29:52.145Z,6.73
2022-08-18T04:32:19.534Z,7.23
2022-08-18T04:34:47.499Z,7.43
2022-08-18T04:37:18.290Z,7.33
2022-08-18T04:39:46.719Z,7.37
2022-08-18T04:42:14.302Z,7.47
2022-08-18T04:44:43.280Z,7.80
2022-08-18T04:47:10.123Z,7.87
2022-08-18T04:49:37.542Z,7.10
2022-08-18T04:52:40.724Z,7.80
2022-08-18T04:55:10.340Z,7.10
2022-08-18T04:57:37.540Z,7.40
2022-08-18T05:00:06.870Z,7.50
2022-08-18T05:02:33.802Z,6.63
2022-08-18T05:05:03.407Z,7.23
2022-08-18T05:07:31.244Z,7.37
2022-08-18T05:09:58.079Z,7.00
2022-08-18T05:12:26.119Z,7.43
2022-08-18T05:14:53.979Z,7.07
2022-08-18T05:17:20.705Z,7.77
2022-08-18T05:19:47.641Z,6.73
2022-08-18T05:22:19.630Z,7.20
2022-08-18T05:24:54.697Z,7.87
2022-08-18T05:27:21.779Z,7.53
2022-08-18T05:29:51.607Z,7.60
2022-08-18T05:32:46.382Z,6.80
2022-08-18T05:35:15.171Z,7.00
2022-08-18T05:37:48.178Z,6.83
2022-08-18T05:40:19.119Z,7.20
2022-08-18T05:42:46.853Z,7.00
2022-08-18T05:45:17.573Z,6.53
2022-08-18T05:47:44.833Z,6.23
2022-08-18T05:50:17.311Z,6.33
2022-08-18T05:52:50.624Z,6.63
2022-08-18T05:55:52.164Z,6.23
2022-08-18T05:58:42.092Z,7.33
2022-08-18T06:01:38.557Z,6.40
2022-08-18T06:04:22.078Z,6.50
2022-08-18T06:06:51.299Z,5.73
2022-08-18T06:09:25.684Z,6.60
2022-08-18T06:11:56.700Z,6.40
2022-08-18T06:14:24.490Z,6.27
2022-08-18T06:17:09.185Z,6.40
2022-08-18T06:20:18.086Z,6.17
2022-08-18T06:22:55.236Z,6.83
2022-08-18T06:25:57.764Z,6.50
2022-08-18T06:28:29.456Z,6.60
2022-08-18T06:31:13.790Z,6.37
2022-08-18T06:34:14.207Z,6.53
2022-08-18T06:36:59.211Z,6.30
2022-08-18T06:39:39.606Z,6.03
2022-08-18T06:42:06.408Z,6.27
2022-08-18T06:44:39.069Z,6.77
2022-08-18T06:47:43.099Z,6.03
2022-08-18T06:50:46.262Z,6.77
2022-08-18T06:53:26.910Z,6.50
2022-08-18T06:55:56.174Z,6.33
2022-08-18T06:58:32.698Z,6.20
2022-08-18T07:01:00.984Z,6.53
2022-08-18T07:03:36.939Z,6.07
2022-08-18T07:06:09.321Z,6.07
2022-08-18T07:08:41.550Z,5.70
2022-08-18T07:11:17.370Z,6.30
2022-08-18T07:13:54.930Z,7.30
2022-08-18T07:16:57.865Z,6.40
2022-08-18T07:19:29.539Z,6.53
2022-08-18T07:22:06.492Z,6.17
2022-08-18T07:24:42.267Z,6.50
2022-08-18T07:27:11.343Z,6.57
2022-08-18T07:30:04.017Z,6.27
2022-08-18T07:32:40.526Z,6.97
2022-08-18T07:35:09.394Z,6.23
2022-08-18T07:38:13.955Z,5.90
2022-08-18T07:41:14.163Z,6.73
2022-08-18T07:43:52.904Z,6.80
2022-08-18T07:46:28.665Z,7.10
2022-08-18T07:48:59.578Z,7.40
2022-08-18T07:51:46.082Z,7.27
2022-08-18T07:54:49.055Z,6.77
2022-08-18T07:57:44.425Z,7.00
2022-08-18T08:00:35.201Z,6.80
2022-08-18T08:03:28.222Z,7.17
2022-08-18T08:06:31.457Z,7.17
2022-08-18T08:09:04.244Z,7.22
2022-08-18T08:11:35.555Z,7.07
2022-08-18T08:14:26.523Z,7.27
2022-08-18T08:17:05.978Z,6.67
2022-08-18T08:20:00.177Z,7.30
2022-08-18T08:22:33.161Z,7.23
2022-08-18T08:25:45.037Z,7.40
2022-08-18T08:28:29.551Z,7.50
2022-08-18T08:34:20.368Z,8.00
2022-08-18T08:36:50.341Z,8.07
2022-08-18T08:39:20.785Z,8.10
2022-08-18T08:42:00.377Z,8.67
2022-08-18T08:44:59.817Z,7.30
2022-08-18T08:47:36.810Z,8.10
2022-08-18T08:50:18.427Z,8.23
2022-08-18T08:52:58.276Z,7.27
2022-08-18T08:55:36.267Z,8.70
2022-08-18T08:58:17.898Z,8.00
2022-08-18T09:00:46.322Z,8.27
2022-08-18T09:03:43.170Z,9.30
2022-08-18T09:06:33.946Z,8.70
2022-08-18T09:09:21.660Z,8.27
2022-08-18T09:12:11.929Z,8.17
2022-08-18T09:14:52.755Z,7.57
2022-08-18T09:17:44.801Z,7.43
2022-08-18T09:20:53.147Z,6.70
2022-08-18T09:23:28.168Z,7.15
2022-08-18T09:26:00.298Z,7.90
2022-08-18T09:28:30.145Z,7.13
2022-08-18T09:31:08.632Z,7.30
2022-08-18T09:33:45.455Z,7.45
2022-08-18T09:36:27.572Z,7.07
2022-08-18T09:39:41.931Z,8.13
2022-08-18T09:42:30.121Z,8.00
2022-08-18T09:45:02.283Z,7.90
2022-08-18T09:47:30.851Z,7.47
2022-08-18T09:50:26.538Z,7.40
2022-08-18T09:53:14.668Z,7.80
2022-08-18T09:55:56.626Z,8.15
2022-08-18T09:58:26.241Z,7.57
2022-08-18T10:01:19.539Z,8.32
2022-08-18T10:04:29.394Z,8.18
2022-08-18T10:07:31.970Z,7.95
2022-08-18T10:11:00.922Z,8.05
2022-08-18T10:13:24.848Z,7.65
2022-08-18T10:16:16.427Z,6.60
2022-08-18T10:19:06.757Z,8.00
2022-08-18T10:21:58.445Z,7.97
2022-08-18T10:24:38.178Z,8.40
2022-08-18T10:27:13.745Z,7.72
2022-08-18T10:29:47.866Z,8.07
2022-08-18T10:32:14.582Z,7.50
2022-08-18T10:34:51.616Z,7.90
2022-08-18T10:37:21.653Z,7.97
2022-08-18T10:40:04.778Z,7.60
2022-08-18T10:42:44.614Z,8.52
2022-08-18T10:45:59.462Z,7.47
2022-08-18T10:48:34.823Z,8.20
2022-08-18T10:52:01.508Z,8.23
2022-08-18T10:54:54.227Z,7.22
2022-08-18T10:57:43.282Z,7.55
2022-08-18T11:00:21.785Z,7.68
2022-08-18T11:03:30.153Z,7.40
2022-08-18T11:06:14.474Z,7.40
2022-08-18T11:08:55.240Z,7.82
2022-08-18T11:11:38.026Z,8.70
2022-08-18T11:14:11.486Z,7.90
2022-08-18T11:16:59.439Z,8.30
2022-08-18T11:19:27.115Z,7.80
2022-08-18T11:21:53.978Z,7.72
2022-08-18T11:24:27.682Z,9.05
2022-08-18T11:27:00.154Z,8.07
2022-08-18T11:29:36.116Z,8.63
2022-08-18T11:32:09.127Z,8.18
2022-08-18T11:34:45.522Z,7.88
2022-08-18T11:37:49.638Z,7.72
2022-08-18T11:41:09.163Z,7.82
2022-08-18T11:43:41.168Z,8.00
2022-08-18T11:46:27.750Z,8.52
2022-08-18T11:48:57.502Z,8.25
2022-08-18T11:51:31.357Z,7.28
2022-08-18T11:54:13.767Z,8.13
2022-08-18T11:56:40.517Z,7.43
2022-08-18T11:59:52.794Z,8.35
2022-08-18T12:02:20.581Z,8.98
2022-08-18T12:05:02.902Z,8.85
2022-08-18T12:10:30.023Z,9.10
2022-08-18T12:13:00.884Z,9.15
2022-08-18T12:15:36.610Z,7.65
2022-08-18T12:18:26.276Z,8.32
2022-08-18T12:20:58.719Z,8.85
2022-08-18T12:23:26.008Z,7.75
2022-08-18T12:25:52.816Z,8.85
2022-08-18T12:28:22.840Z,8.73
2022-08-18T12:30:56.842Z,7.82
2022-08-18T12:33:25.177Z,8.68
2022-08-18T12:35:52.693Z,7.80
2022-08-18T12:38:19.493Z,8.32
2022-08-18T12:40:46.376Z,7.95
2022-08-18T12:43:13.262Z,7.82
2022-08-18T12:45:41.467Z,7.32
2022-08-18T12:48:08.829Z,7.07
2022-08-18T12:50:49.684Z,7.05
2022-08-18T12:53:30.102Z,6.93
2022-08-18T12:56:30.319Z,7.10
2022-08-18T12:59:00.456Z,6.18
2022-08-18T13:01:32.478Z,6.43
2022-08-18T13:04:11.371Z,7.65
2022-08-18T13:06:50.339Z,7.22
2022-08-18T13:09:35.324Z,7.45
2022-08-18T13:12:17.202Z,7.15
2022-08-18T13:14:44.946Z,8.10
2022-08-18T13:17:29.772Z,7.72
2022-08-18T13:20:06.559Z,7.63
2022-08-18T13:22:35.521Z,7.07
2022-08-18T13:25:05.566Z,8.90
2022-08-18T13:27:35.554Z,8.45
2022-08-18T13:30:29.608Z,8.25
2022-08-18T13:32:58.842Z,8.70
2022-08-18T13:35:30.181Z,9.25
2022-08-18T13:38:06.709Z,9.68
2022-08-18T13:40:47.523Z,8.82
2022-08-18T13:43:17.494Z,8.02
2022-08-18T13:45:48.018Z,8.48
2022-08-18T13:48:20.212Z,8.45
2022-08-18T13:50:47.724Z,9.10
2022-08-18T13:53:21.865Z,9.18
2022-08-18T13:55:49.415Z,8.95
2022-08-18T13:58:21.134Z,9.45
2022-08-18T14:00:54.556Z,8.88
2022-08-18T14:03:42.830Z,8.25
2022-08-18T14:06:12.978Z,8.45
2022-08-18T14:08:40.491Z,8.38
2022-08-18T14:11:07.872Z,9.40
2022-08-18T14:13:38.082Z,7.60
2022-08-18T14:16:16.251Z,7.50
2022-08-18T14:19:10.004Z,7.47
2022-08-18T14:22:04.046Z,7.30
2022-08-18T14:24:50.529Z,7.93
2022-08-18T14:27:24.136Z,7.70
2022-08-18T14:29:55.149Z,7.55
2022-08-18T14:32:29.315Z,7.53
2022-08-18T14:36:04.431Z,8.00
2022-08-18T14:37:49.495Z,7.65
2022-08-18T14:40:21.432Z,8.13
2022-08-18T14:42:54.307Z,7.57
2022-08-18T14:45:31.698Z,7.50
2022-08-18T14:48:07.341Z,7.60
2022-08-18T14:50:38.776Z,7.63
2022-08-18T14:53:06.430Z,7.53
2022-08-18T14:55:34.499Z,7.22
2022-08-18T14:58:03.337Z,7.53
2022-08-18T15:00:30.322Z,7.97
2022-08-18T15:02:59.490Z,7.68
2022-08-18T15:05:32.223Z,7.18
2022-08-18T15:08:05.557Z,7.55
2022-08-18T15:10:32.891Z,7.70
2022-08-18T15:13:00.468Z,7.55
2022-08-18T15:15:28.618Z,7.20
2022-08-18T15:18:15.592Z,8.10
2022-08-18T15:21:10.419Z,8.20
2022-08-18T15:24:14.969Z,8.27
2022-08-18T15:26:51.525Z,7.93
2022-08-18T15:29:18.946Z,7.93
2022-08-18T15:31:50.763Z,8.10
2022-08-18T15:34:20.631Z,8.23
2022-08-18T15:36:48.091Z,7.57
2022-08-18T15:39:15.309Z,8.15
2022-08-18T15:41:48.588Z,9.45
2022-08-18T15:44:20.584Z,9.40
2022-08-18T15:46:53.442Z,8.55
2022-08-18T15:49:21.739Z,8.68
2022-08-18T15:51:50.045Z,8.02
2022-08-18T15:54:19.549Z,8.02
2022-08-18T15:56:58.194Z,7.85
2022-08-18T15:59:34.107Z,8.30
2022-08-18T16:02:11.727Z,8.00
2022-08-18T16:04:41.289Z,8.07
2022-08-18T16:07:12.165Z,8.27
2022-08-18T16:09:38.916Z,7.85
2022-08-18T16:12:09.034Z,8.13
2022-08-18T16:14:40.390Z,8.73
2022-08-18T16:17:09.418Z,8.07
2022-08-18T16:19:45.145Z,8.43
2022-08-18T16:22:13.467Z,8.25
2022-08-18T16:24:40.608Z,8.10
2022-08-18T16:27:08.782Z,7.97
2022-08-18T16:29:36.514Z,8.43
2022-08-18T16:32:03.726Z,8.33
2022-08-18T16:34:32.163Z,8.93
2022-08-18T16:36:59.048Z,9.13
2022-08-18T16:39:25.799Z,8.70
2022-08-18T16:41:52.591Z,9.47
2022-08-18T16:44:19.565Z,9.10
2022-08-18T16:46:46.532Z,9.15
2022-08-18T16:49:13.414Z,8.27
2022-08-18T16:51:40.833Z,9.07
2022-08-18T16:54:07.632Z,8.63
2022-08-18T16:56:35.963Z,8.93
2022-08-18T16:59:22.491Z,9.07
2022-08-18T17:02:07.882Z,9.17
2022-08-18T17:04:34.831Z,9.57
2022-08-18T17:07:04.830Z,8.90
2022-08-18T17:09:33.062Z,9.60
2022-08-18T17:12:00.234Z,9.77
2022-08-18T17:14:30.052Z,8.90
2022-08-18T17:16:58.544Z,8.67
2022-08-18T17:19:29.801Z,8.93
2022-08-18T17:21:57.007Z,9.10
2022-08-18T17:24:31.440Z,8.30
2022-08-18T17:27:27.772Z,9.33
2022-08-18T17:30:23.521Z,9.43
2022-08-18T17:33:02.048Z,7.20
2022-08-18T17:35:35.244Z,6.00
2022-08-18T17:38:43.706Z,6.40
2022-08-18T17:41:12.576Z,8.57
2022-08-18T17:46:27.589Z,2.83
2022-08-18T17:49:04.021Z,2.43
2022-08-18T17:51:44.549Z,4.57
2022-08-18T17:54:38.392Z,5.00
2022-08-18T17:57:15.607Z,4.57
2022-08-18T17:59:58.955Z,5.47
2022-08-18T18:02:30.601Z,5.83
2022-08-18T18:05:06.083Z,7.07
2022-08-18T18:07:45.829Z,7.73
2022-08-18T18:10:29.239Z,8.00
2022-08-18T18:13:20.519Z,9.97
2022-08-18T18:16:19.671Z,9.90
2022-08-18T18:18:56.496Z,9.97
2022-08-18T18:21:53.556Z,9.47
2022-08-18T18:24:23.911Z,9.17
2022-08-18T18:26:52.874Z,8.53
2022-08-18T18:29:38.419Z,7.17
2022-08-18T18:32:10.761Z,7.03
2022-08-18T18:34:44.456Z,6.47
2022-08-18T18:37:27.220Z,5.43
2022-08-18T18:39:57.992Z,5.37
2022-08-18T18:42:30.803Z,5.27
2022-08-18T18:45:00.490Z,4.27
2022-08-18T18:47:47.513Z,4.57
2022-08-18T18:50:26.662Z,4.00
2022-08-18T18:53:12.204Z,4.30
2022-08-18T18:55:56.318Z,3.70
2022-08-18T18:58:36.680Z,3.77
2022-08-18T19:01:09.866Z,3.60
2022-08-18T19:03:48.468Z,3.00
2022-08-18T19:06:24.995Z,3.40
2022-08-18T19:09:17.971Z,3.90
2022-08-18T19:11:57.814Z,3.90
2022-08-18T19:14:39.391Z,3.27
2022-08-18T19:17:35.977Z,3.17
2022-08-18T19:20:16.752Z,6.13
2022-08-18T19:23:06.564Z,4.50
2022-08-18T19:25:44.313Z,3.30
2022-08-18T19:28:30.212Z,3.10
2022-08-18T19:31:03.638Z,3.17
2022-08-18T19:33:43.800Z,3.10
2022-08-18T19:36:40.056Z,3.00
2022-08-18T19:39:18.801Z,2.73
2022-08-18T19:41:59.409Z,2.70
2022-08-18T19:44:35.487Z,2.53
2022-08-18T19:47:36.936Z,2.73
2022-08-18T19:50:27.283Z,2.90
2022-08-18T19:53:04.952Z,3.20
2022-08-18T19:55:54.172Z,2.53
2022-08-18T19:58:35.561Z,2.30
2022-08-18T20:01:20.917Z,2.00
2022-08-18T20:03:54.612Z,2.10
2022-08-18T20:06:38.195Z,1.70
2022-08-18T20:09:20.795Z,4.70
2022-08-18T20:12:06.016Z,2.40
2022-08-18T20:14:37.430Z,2.37
2022-08-18T20:17:20.559Z,2.37
2022-08-18T20:19:59.519Z,2.20
2022-08-18T20:22:33.317Z,2.23
2022-08-18T20:25:08.303Z,3.33
2022-08-18T20:28:14.713Z,4.20
2022-08-18T20:30:53.172Z,5.73
2022-08-18T20:33:23.014Z,7.73
2022-08-18T20:36:12.701Z,7.70
2022-08-18T20:38:53.320Z,9.93
2022-08-18T20:41:20.141Z,11.13
2022-08-18T20:43:50.260Z,12.27
2022-08-18T20:46:46.371Z,13.40
2022-08-18T20:49:25.486Z,14.87
2022-08-18T20:52:03.971Z,15.27
2022-08-18T20:54:57.254Z,15.83
2022-08-18T20:57:27.203Z,17.37
2022-08-18T21:00:02.151Z,17.50
2022-08-18T21:02:42.656Z,16.77
2022-08-18T21:05:16.630Z,16.47
2022-08-18T21:07:58.056Z,14.47
2022-08-18T21:10:29.749Z,15.47
2022-08-18T21:13:00.794Z,13.53
2022-08-18T21:15:36.249Z,12.57
2022-08-18T21:18:10.676Z,13.23
2022-08-18T21:20:37.647Z,13.70
2022-08-18T21:23:12.175Z,14.33
2022-08-18T21:25:57.896Z,13.77
2022-08-18T21:28:31.426Z,14.50
2022-08-18T21:31:29.017Z,15.10
2022-08-18T21:33:51.100Z,13.23
2022-08-18T21:36:21.941Z,12.67
2022-08-18T21:39:05.462Z,13.60
2022-08-18T21:41:41.266Z,13.80
2022-08-18T21:44:23.143Z,13.17
2022-08-18T21:46:51.267Z,14.90
2022-08-18T21:49:25.494Z,13.80
2022-08-18T21:51:53.603Z,15.53
2022-08-18T21:54:29.251Z,16.50
2022-08-18T21:57:25.614Z,14.93
2022-08-18T22:00:26.549Z,15.17
2022-08-18T22:03:24.670Z,16.27
2022-08-18T22:06:20.218Z,16.27
2022-08-18T22:09:24.340Z,16.93
2022-08-18T22:12:48.802Z,15.33
2022-08-18T22:15:28.852Z,15.20
2022-08-18T22:18:05.486Z,15.23
2022-08-18T22:20:59.804Z,15.43
2022-08-18T22:23:58.218Z,13.40
2022-08-18T22:26:30.916Z,13.67
2022-08-18T22:29:05.838Z,12.67
2022-08-18T22:31:40.138Z,12.63
2022-08-18T22:34:13.492Z,12.37
2022-08-18T22:36:57.068Z,13.13
2022-08-18T22:39:49.702Z,12.73
2022-08-18T22:42:18.876Z,12.90
2022-08-18T22:44:46.501Z,12.37
2022-08-18T22:47:13.943Z,13.53
2022-08-18T22:49:42.394Z,12.73
2022-08-18T22:52:30.109Z,11.67
2022-08-18T22:55:02.765Z,10.40
2022-08-18T22:57:37.576Z,11.13
2022-08-18T23:00:09.156Z,9.47
2022-08-18T23:02:37.257Z,9.33
2022-08-18T23:05:05.109Z,8.53
2022-08-18T23:07:33.629Z,8.57
2022-08-18T23:10:00.710Z,8.60
2022-08-18T23:12:27.797Z,8.13
2022-08-18T23:14:55.553Z,8.43
2022-08-18T23:17:22.773Z,8.03
2022-08-18T23:19:52.289Z,7.97
2022-08-18T23:22:19.570Z,8.37
2022-08-18T23:24:47.821Z,7.67
2022-08-18T23:27:15.987Z,7.97
2022-08-18T23:29:42.724Z,7.53
2022-08-18T23:32:09.582Z,7.50
2022-08-18T23:34:36.701Z,8.40
2022-08-18T23:37:05.018Z,7.60
2022-08-18T23:39:34.698Z,8.13
2022-08-18T23:42:03.296Z,8.40
2022-08-18T23:44:31.302Z,8.03
2022-08-18T23:47:02.304Z,7.93
2022-08-18T23:49:30.480Z,8.23
2022-08-18T23:52:03.212Z,7.60
2022-08-18T23:54:37.735Z,7.27
2022-08-18T23:57:05.873Z,7.23
2022-08-18T23:59:32.764Z,6.53
